Time;durP1;ratioP1;P1;durP2;ratioP2;P2;SDS_P1;SDS_P2;PMS_P1;PMS_P2;Temp;Humidity;BMP_temperature;BMP_pressure;BME280_temperature;BME280_humidity;BME280_pressure;Samples;Min_cycle;Max_cycle;Signal;HPM_P1;HPM_P2
2022/01/21 00:00:11;;;;;;;6.45;1.52;;;;;;;4.91;56.24;102749.84;5030560;28;20038;-80
2022/01/21 00:02:38;;;;;;;3.60;1.48;;;;;;;4.84;56.88;102749.59;5026748;28;20077;-80
2022/01/21 00:05:04;;;;;;;6.38;1.77;;;;;;;4.81;57.10;102741.75;5029382;28;20603;-80
2022/01/21 00:07:30;;;;;;;6.38;1.65;;;;;;;4.91;56.82;102739.53;5025790;28;20042;-81
2022/01/21 00:09:55;;;;;;;4.68;2.47;;;;;;;4.70;57.53;102743.09;5021657;28;20037;-80
2022/01/21 00:12:21;;;;;;;6.72;1.48;;;;;;;4.54;57.76;102749.41;5028298;28;20132;-79
2022/01/21 00:14:46;;;;;;;5.80;1.60;;;;;;;4.78;56.88;102746.81;5027341;28;20095;-79
2022/01/21 00:17:12;;;;;;;3.45;1.70;;;;;;;4.89;57.03;102738.63;5029526;28;20021;-79
2022/01/21 00:19:41;;;;;;;7.15;1.92;;;;;;;5.03;56.26;102736.47;5020296;28;20033;-79
2022/01/21 00:30:10;;;;;;;6.63;2.30;;;;;;;5.02;56.88;102744.19;5028636;28;20056;-79
2022/01/21 00:30:25;;;;;;;5.38;1.55;;;;;;;4.68;57.81;102744.72;5029988;28;20055;-80
2022/01/21 00:32:51;;;;;;;10.93;1.90;;;;;;;4.85;56.38;102747.06;5021910;28;20124;-80
2022/01/21 00:35:19;;;;;;;6.38;1.73;;;;;;;4.81;57.05;102758.09;5035850;28;20573;-80
2022/01/21 00:37:45;;;;;;;6.10;1.80;;;;;;;4.56;58.10;102765.78;5025883;28;20039;-80
2022/01/21 00:40:15;;;;;;;4.82;1.70;;;;;;;4.68;57.85;102768.78;5025321;28;20084;-80
2022/01/21 00:45:13;;;;;;;4.43;1.50;;;;;;;4.63;56.97;102766.88;5026123;28;20047;-80
2022/01/21 00:47:39;;;;;;;10.55;2.75;;;;;;;4.33;58.29;102764.97;5024042;28;20030;-80
2022/01/21 00:50:05;;;;;;;5.65;1.83;;;;;;;4.62;57.82;102767.69;5037373;28;20032;-80
2022/01/21 00:52:31;;;;;;;9.55;2.28;;;;;;;4.75;56.90;102760.44;5024922;28;20080;-80
2022/01/21 00:54:57;;;;;;;4.90;1.45;;;;;;;4.88;56.88;102756.59;5025959;28;20038;-80
2022/01/21 00:57:22;;;;;;;9.25;1.55;;;;;;;4.86;57.09;102792.59;5023867;28;20026;-79
2022/01/21 00:59:47;;;;;;;5.68;1.52;;;;;;;4.96;56.40;102790.34;5026028;28;20045;-79
2022/01/21 01:02:13;;;;;;;8.45;2.65;;;;;;;4.58;57.52;102778.72;5022417;28;20042;-79
2022/01/21 01:04:39;;;;;;;6.47;1.75;;;;;;;4.80;56.98;102786.34;5022897;28;20106;-79
2022/01/21 01:07:04;;;;;;;11.50;2.25;;;;;;;4.66;57.61;102785.88;5026677;28;20041;-79
2022/01/21 01:09:30;;;;;;;9.40;1.63;;;;;;;4.91;56.15;102797.91;5025743;28;20042;-79
2022/01/21 01:12:16;;;;;;;8.95;2.22;;;;;;;4.94;56.98;102807.44;5025891;28;20038;-79
2022/01/21 01:20:09;;;;;;;4.47;1.73;;;;;;;4.55;58.69;102799.19;5020851;28;20045;-79
2022/01/21 01:27:48;;;;;;;6.95;2.13;;;;;;;4.74;57.80;102786.13;5025789;28;20540;-80
2022/01/21 01:30:17;;;;;;;9.30;2.38;;;;;;;4.69;57.77;102785.09;5027002;28;20073;-80
2022/01/21 01:32:45;;;;;;;5.47;1.88;;;;;;;4.88;57.03;102790.94;5024684;28;20509;-80
2022/01/21 01:35:12;;;;;;;6.43;1.98;;;;;;;4.75;57.80;102793.91;5027873;28;20025;-80
2022/01/21 01:43:07;;;;;;;4.25;1.50;;;;;;;4.85;57.25;102790.81;5020844;28;20048;-80
2022/01/21 01:51:01;;;;;;;8.68;2.03;;;;;;;4.72;57.49;102780.94;5032177;28;20037;-80
2022/01/21 01:53:40;;;;;;;6.03;1.95;;;;;;;4.85;57.91;102785.69;5030942;28;20032;-80
2022/01/21 01:56:09;;;;;;;4.63;1.63;;;;;;;4.94;57.45;102789.41;5027246;28;20053;-80
2022/01/21 01:58:38;;;;;;;5.65;2.13;;;;;;;5.00;57.09;102782.75;5027276;28;20060;-80
2022/01/21 02:01:05;;;;;;;4.93;1.98;;;;;;;4.67;58.13;102784.19;5034583;28;20168;-79
2022/01/21 02:03:32;;;;;;;6.00;2.45;;;;;;;4.88;57.11;102783.22;5026964;28;20547;-79
2022/01/21 02:05:58;;;;;;;8.45;3.10;;;;;;;4.83;57.53;102792.47;5032528;28;20073;-79
2022/01/21 02:08:25;;;;;;;9.38;2.50;;;;;;;4.84;57.50;102788.22;5026887;28;20055;-79
2022/01/21 02:10:50;;;;;;;7.93;2.60;;;;;;;5.02;56.58;102780.25;5027473;28;20394;-79
2022/01/21 02:16:05;;;;;;;3.85;1.77;;;;;;;4.72;58.04;102780.94;5028622;28;21328;-79
2022/01/21 02:21:36;;;;;;;6.65;1.95;;;;;;;4.89;57.17;102784.97;5030099;28;20040;-79
2022/01/21 02:24:06;;;;;;;11.68;2.53;;;;;;;5.01;57.08;102781.06;5030864;28;22334;-79
2022/01/21 02:26:32;;;;;;;7.90;1.95;;;;;;;4.76;57.57;102787.94;5026828;28;20033;-79
2022/01/21 02:29:00;;;;;;;9.30;2.25;;;;;;;4.90;57.65;102778.13;5036544;28;20074;-79
2022/01/21 02:31:26;;;;;;;13.18;3.03;;;;;;;4.62;58.26;102780.56;5025864;28;20037;-79
2022/01/21 02:33:51;;;;;;;12.45;2.55;;;;;;;4.91;57.34;102774.75;5028850;28;20041;-79
2022/01/21 02:36:17;;;;;;;7.15;2.13;;;;;;;4.75;57.58;102775.03;5028451;28;20042;-79
2022/01/21 02:38:43;;;;;;;10.68;2.08;;;;;;;4.96;56.40;102772.31;5030007;28;20045;-79
2022/01/21 02:41:10;;;;;;;8.15;2.38;;;;;;;4.80;57.34;102787.22;5026818;28;20025;-79
2022/01/21 02:43:35;;;;;;;8.63;2.72;;;;;;;4.26;59.23;102787.81;5031662;28;20042;-79
2022/01/21 02:46:05;;;;;;;8.88;1.90;;;;;;;4.62;58.24;102780.56;5025503;28;20068;-79
2022/01/21 02:48:35;;;;;;;6.75;2.72;;;;;;;4.84;56.92;102777.91;5028433;28;20037;-79
2022/01/21 02:51:01;;;;;;;7.95;1.77;;;;;;;4.60;58.12;102789.94;5026912;28;20025;-79
2022/01/21 02:53:40;;;;;;;6.38;2.13;;;;;;;4.88;57.52;102797.81;5033206;28;20025;-79
2022/01/21 02:56:06;;;;;;;9.38;2.58;;;;;;;4.69;58.21;102803.13;5032437;28;20021;-79
2022/01/21 02:58:33;;;;;;;8.68;2.20;;;;;;;4.67;58.06;102797.06;5029861;28;20029;-79
2022/01/21 03:00:59;;;;;;;9.07;2.58;;;;;;;4.76;57.78;102797.38;5032136;28;20040;-79
2022/01/21 03:03:24;;;;;;;7.35;2.22;;;;;;;4.65;58.61;102807.28;5027618;28;20046;-79
2022/01/21 03:05:50;;;;;;;5.60;2.70;;;;;;;4.86;57.56;102799.44;5030612;28;20044;-79
2022/01/21 03:08:15;;;;;;;9.95;2.15;;;;;;;4.94;57.71;102804.88;5038524;28;20044;-79
2022/01/21 03:10:41;;;;;;;7.78;2.40;;;;;;;4.77;57.79;102799.13;5027508;28;20498;-79
2022/01/21 03:13:07;;;;;;;13.07;3.22;;;;;;;4.80;58.34;102804.38;5025461;28;20109;-79
2022/01/21 03:15:32;;;;;;;5.65;2.55;;;;;;;4.93;57.98;102806.56;5026369;28;20041;-79
2022/01/21 03:17:58;;;;;;;7.93;2.40;;;;;;;4.82;58.32;102808.75;5027968;28;20033;-79
2022/01/21 03:20:23;;;;;;;7.53;2.80;;;;;;;4.54;58.27;102813.75;5027623;28;20087;-79
2022/01/21 03:22:49;;;;;;;6.22;2.08;;;;;;;4.67;58.38;102804.78;5024186;28;20042;-79
2022/01/21 03:25:14;;;;;;;12.35;2.38;;;;;;;4.74;57.77;102807.59;5037144;28;20124;-79
2022/01/21 03:27:40;;;;;;;8.45;3.22;;;;;;;4.07;59.71;102809.44;5025200;28;20544;-79
2022/01/21 03:30:09;;;;;;;9.82;2.28;;;;;;;4.69;58.17;102798.84;5026429;28;20106;-79
2022/01/21 03:32:34;;;;;;;5.30;2.30;;;;;;;4.64;58.40;102799.53;5025491;28;20111;-79
2022/01/21 03:35:00;;;;;;;5.95;2.10;;;;;;;4.52;58.72;102801.66;5026308;28;20056;-79
2022/01/21 03:37:26;;;;;;;7.97;2.20;;;;;;;4.64;58.93;102808.13;5027108;28;20116;-79
2022/01/21 03:39:51;;;;;;;11.50;2.85;;;;;;;4.79;58.42;102811.22;5028936;28;20049;-79
2022/01/21 03:42:17;;;;;;;7.03;2.20;;;;;;;4.62;58.29;102803.72;5029634;28;20042;-79
2022/01/21 03:44:42;;;;;;;7.38;2.58;;;;;;;4.66;58.49;102801.31;5031108;28;20033;-79
2022/01/21 03:47:08;;;;;;;8.05;2.45;;;;;;;4.72;58.41;102811.84;5028806;28;20473;-79
2022/01/21 03:49:39;;;;;;;9.27;2.53;;;;;;;4.94;57.62;102807.44;5025165;28;20397;-79
2022/01/21 03:52:06;;;;;;;10.30;2.47;;;;;;;4.66;58.96;102805.59;5026467;28;20045;-79
2022/01/21 03:54:34;;;;;;;6.65;2.30;;;;;;;4.47;58.85;102813.47;5020200;28;20571;-79
2022/01/21 03:57:00;;;;;;;8.77;2.42;;;;;;;4.84;57.89;102817.41;5024725;28;20053;-79
2022/01/21 03:59:25;;;;;;;7.05;2.47;;;;;;;4.62;58.05;102819.16;5024093;28;20052;-79
2022/01/21 04:01:51;;;;;;;8.57;2.20;;;;;;;4.90;58.21;102825.34;5028170;28;20029;-79
2022/01/21 04:04:16;;;;;;;8.10;3.13;;;;;;;4.92;57.56;102827.97;5029715;28;20537;-79
2022/01/21 04:06:42;;;;;;;8.95;2.45;;;;;;;4.74;58.14;102823.06;5026575;28;20402;-80
2022/01/21 04:09:07;;;;;;;6.80;2.50;;;;;;;4.67;58.52;102823.66;5031559;28;20071;-80
2022/01/21 04:11:33;;;;;;;13.45;3.00;;;;;;;4.96;57.67;102824.69;5025463;28;20029;-80
2022/01/21 04:13:58;;;;;;;13.70;2.92;;;;;;;4.83;58.22;102819.91;5030367;28;20029;-80
2022/01/21 04:16:24;;;;;;;10.45;2.40;;;;;;;4.74;59.28;102820.47;5029122;28;20037;-80
2022/01/21 04:18:50;;;;;;;10.73;3.08;;;;;;;5.00;57.65;102823.09;5029864;28;20371;-80
2022/01/21 04:21:15;;;;;;;9.98;3.35;;;;;;;4.87;58.82;102820.09;5025816;28;20029;-80
2022/01/21 04:23:41;;;;;;;12.15;2.65;;;;;;;4.79;58.81;102818.94;5018861;28;20069;-79
2022/01/21 04:26:07;;;;;;;9.90;2.85;;;;;;;4.85;59.13;102814.00;5025940;28;20048;-79
2022/01/21 04:28:32;;;;;;;8.43;2.40;;;;;;;5.15;57.29;102797.88;5030983;28;20593;-79
2022/01/21 04:30:59;;;;;;;8.77;3.10;;;;;;;5.02;57.86;102803.41;5023282;28;20099;-80
2022/01/21 04:33:24;;;;;;;9.90;2.92;;;;;;;5.12;57.47;102801.19;5026352;28;20410;-79
2022/01/21 04:35:50;;;;;;;12.55;2.92;;;;;;;5.07;58.07;102805.31;5022564;28;20041;-79
2022/01/21 04:38:19;;;;;;;13.38;1.85;;;;;;;4.92;58.37;102822.81;5025601;28;20533;-79
2022/01/21 04:40:52;;;;;;;7.55;2.22;;;;;;;4.74;59.25;102824.75;5023022;28;20053;-79
2022/01/21 04:48:46;;;;;;;7.18;2.20;;;;;;;5.04;57.96;102817.22;5020795;28;20076;-79
2022/01/21 04:51:18;;;;;;;9.43;2.13;;;;;;;4.93;58.50;102818.56;5023831;28;20462;-79
2022/01/21 04:53:45;;;;;;;6.72;1.98;;;;;;;5.11;57.83;102819.19;5037080;28;20022;-79
2022/01/21 04:56:12;;;;;;;4.97;1.90;;;;;;;5.21;57.12;102810.94;5025350;28;20387;-79
2022/01/21 04:58:38;;;;;;;9.93;2.75;;;;;;;4.79;58.52;102813.78;5022305;28;20046;-79
2022/01/21 05:01:05;;;;;;;9.35;1.88;;;;;;;4.70;59.24;102810.03;5021495;28;20033;-79
2022/01/21 05:03:32;;;;;;;8.10;2.63;;;;;;;4.70;58.78;102815.19;5021195;28;20065;-79
2022/01/21 05:06:00;;;;;;;9.07;1.83;;;;;;;5.03;58.31;102820.63;5021441;28;20029;-79
2022/01/21 05:08:30;;;;;;;9.02;3.22;;;;;;;4.91;58.20;102821.09;5023450;28;21031;-79
2022/01/21 05:10:56;;;;;;;6.32;1.83;;;;;;;5.11;57.79;102819.19;5035914;28;20089;-79
2022/01/21 05:13:25;;;;;;;9.60;2.30;;;;;;;4.98;57.90;102823.03;5022371;28;20069;-79
2022/01/21 05:16:30;;;;;;;8.68;1.73;;;;;;;5.01;57.90;102817.09;5018949;28;20042;-79
2022/01/21 05:18:42;;;;;;;9.07;2.03;;;;;;;5.05;57.31;102811.25;5018620;28;20044;-79
2022/01/21 05:21:08;;;;;;;10.18;2.65;;;;;;;4.94;58.20;102821.16;5026574;28;20029;-79
2022/01/21 05:23:33;;;;;;;7.22;1.88;;;;;;;5.07;58.16;102822.47;5018747;28;20029;-79
2022/01/21 05:25:59;;;;;;;6.82;2.80;;;;;;;4.81;58.58;102817.31;5021301;28;20039;-79
2022/01/21 05:28:24;;;;;;;4.97;1.80;;;;;;;4.67;59.17;102813.34;5021083;28;20053;-79
2022/01/21 05:30:50;;;;;;;6.40;2.13;;;;;;;4.82;58.14;102824.19;5023191;28;20046;-79
2022/01/21 05:33:15;;;;;;;6.72;1.73;;;;;;;4.99;58.09;102822.22;5021570;28;20132;-79
2022/01/21 05:35:41;;;;;;;6.10;1.98;;;;;;;4.83;58.83;102822.50;5024597;28;20044;-80
2022/01/21 05:38:06;;;;;;;5.07;1.83;;;;;;;4.99;57.55;102834.22;5026871;28;20050;-79
2022/01/21 05:40:32;;;;;;;8.57;2.28;;;;;;;4.94;58.05;102833.19;5039018;28;20049;-79
2022/01/21 05:42:58;;;;;;;8.18;2.70;;;;;;;5.03;58.92;102833.50;5023564;28;20040;-80
2022/01/21 05:48:08;;;;;;;9.20;2.03;;;;;;;5.01;57.69;102842.88;5024989;28;20053;-79
2022/01/21 05:50:33;;;;;;;5.65;1.92;;;;;;;4.84;58.33;102835.44;5026053;28;20030;-81
2022/01/21 05:53:04;;;;;;;7.43;2.30;;;;;;;5.17;57.36;102840.88;5024812;28;20025;-81
2022/01/21 05:55:29;;;;;;;14.27;2.90;;;;;;;5.05;57.82;102845.63;5008657;28;20136;-82
2022/01/21 05:57:55;;;;;;;5.13;2.08;;;;;;;5.17;57.59;102847.72;5024316;28;20172;-82
2022/01/21 06:00:20;;;;;;;10.85;2.30;;;;;;;5.15;58.18;102852.81;5023597;28;20034;-82
2022/01/21 06:02:46;;;;;;;7.70;2.15;;;;;;;5.20;57.31;102845.25;5026137;28;20049;-82
2022/01/21 06:05:14;;;;;;;8.85;2.25;;;;;;;5.10;57.85;102858.63;5022368;28;20109;-82
2022/01/21 06:07:41;;;;;;;7.28;2.28;;;;;;;5.09;57.74;102860.34;5019009;28;20447;-82
2022/01/21 06:10:08;;;;;;;7.70;3.03;;;;;;;4.78;58.00;102867.81;5022852;28;20044;-82
2022/01/21 06:12:33;;;;;;;9.07;2.55;;;;;;;4.88;58.50;102867.34;5036867;28;20152;-82
2022/01/21 06:14:59;;;;;;;11.27;2.40;;;;;;;4.83;59.25;102863.69;5020639;28;20125;-82
2022/01/21 06:17:24;;;;;;;14.75;2.60;;;;;;;4.96;58.56;102857.28;5021832;28;20026;-82
2022/01/21 06:19:50;;;;;;;9.95;2.30;;;;;;;4.79;59.30;102846.41;5020912;28;20050;-82
2022/01/21 06:22:16;;;;;;;8.32;1.92;;;;;;;4.84;59.26;102860.31;5019141;28;20041;-82
2022/01/21 06:24:42;;;;;;;7.90;2.30;;;;;;;4.87;58.28;102866.44;5038041;28;20038;-82
2022/01/21 06:27:08;;;;;;;6.70;2.40;;;;;;;4.97;58.37;102861.63;5025142;28;20046;-82
2022/01/21 06:29:34;;;;;;;11.70;2.67;;;;;;;4.76;58.92;102857.44;5023263;28;20443;-81
2022/01/21 06:31:59;;;;;;;5.90;2.50;;;;;;;5.07;57.67;102851.69;5022500;28;20036;-82
2022/01/21 06:34:25;;;;;;;7.82;2.42;;;;;;;5.09;57.79;102849.19;5028449;28;20033;-82
2022/01/21 06:36:50;;;;;;;6.82;2.20;;;;;;;5.19;57.77;102851.22;5028871;28;20075;-82
2022/01/21 06:39:16;;;;;;;8.25;2.38;;;;;;;4.93;58.90;102841.72;5029743;28;20099;-82
2022/01/21 06:41:44;;;;;;;5.70;2.13;;;;;;;5.18;57.68;102842.63;5028760;28;20092;-82
2022/01/21 06:44:10;;;;;;;8.43;2.78;;;;;;;5.14;58.14;102847.63;5025076;28;20056;-82
2022/01/21 06:46:35;;;;;;;6.10;1.98;;;;;;;5.20;57.71;102851.31;5026564;28;20092;-81
2022/01/21 06:49:01;;;;;;;9.40;2.25;;;;;;;4.98;58.05;102858.22;5025070;28;20044;-82
2022/01/21 06:51:26;;;;;;;9.13;2.22;;;;;;;5.04;58.97;102861.88;5023238;28;20038;-82
2022/01/21 06:53:53;;;;;;;9.55;2.22;;;;;;;5.07;58.08;102864.56;5015242;28;20123;-82
2022/01/21 06:56:18;;;;;;;5.53;2.17;;;;;;;5.17;57.82;102876.06;5028023;28;20025;-82
2022/01/21 06:58:43;;;;;;;12.07;2.63;;;;;;;4.86;58.68;102875.00;5024367;28;20041;-82
2022/01/21 07:01:09;;;;;;;5.97;2.03;;;;;;;5.23;57.92;102884.00;5027212;28;20053;-83
2022/01/21 07:03:34;;;;;;;8.95;2.38;;;;;;;5.08;58.19;102881.78;5027379;28;20574;-82
2022/01/21 07:06:00;;;;;;;9.63;2.30;;;;;;;5.13;58.89;102885.38;5027703;28;20042;-82
2022/01/21 07:08:27;;;;;;;11.05;2.13;;;;;;;4.78;58.72;102886.72;5029686;28;20128;-80
2022/01/21 07:10:52;;;;;;;12.55;2.92;;;;;;;4.70;58.72;102882.97;5030220;28;20045;-82
2022/01/21 07:13:18;;;;;;;11.75;2.47;;;;;;;4.99;58.75;102889.19;5032045;28;20109;-81
2022/01/21 07:15:44;;;;;;;10.55;2.67;;;;;;;4.95;58.47;102887.31;5014512;28;20030;-82
2022/01/21 07:18:09;;;;;;;6.35;2.13;;;;;;;5.01;58.28;102884.06;5009416;28;20045;-82
2022/01/21 07:20:36;;;;;;;8.32;2.63;;;;;;;4.95;59.32;102886.44;5028454;28;20438;-82
2022/01/21 07:23:01;;;;;;;5.50;2.65;;;;;;;5.13;57.76;102882.81;5027096;28;20372;-82
2022/01/21 07:25:27;;;;;;;8.30;2.35;;;;;;;4.87;59.06;102887.06;5012195;28;20037;-82
2022/01/21 07:27:53;;;;;;;7.53;2.25;;;;;;;5.12;58.30;102886.19;5032816;28;20510;-82
2022/01/21 07:30:18;;;;;;;9.38;2.42;;;;;;;4.92;58.89;102879.47;5029445;28;20038;-82
2022/01/21 07:32:44;;;;;;;6.30;1.90;;;;;;;5.00;58.23;102882.34;5033505;28;20041;-82
2022/01/21 07:35:11;;;;;;;5.28;2.30;;;;;;;5.07;58.40;102881.72;5034369;28;20034;-82
2022/01/21 07:37:38;;;;;;;11.35;3.88;;;;;;;4.90;58.65;102882.00;5026800;28;20052;-82
2022/01/21 07:40:05;;;;;;;10.32;4.00;;;;;;;5.12;58.00;102882.78;5028937;28;20540;-82
2022/01/21 07:42:31;;;;;;;13.63;3.60;;;;;;;5.20;57.99;102876.19;5023495;28;20033;-81
2022/01/21 07:44:56;;;;;;;9.38;2.63;;;;;;;5.23;58.08;102878.88;5024871;28;20049;-76
2022/01/21 07:47:22;;;;;;;8.48;2.90;;;;;;;5.15;58.26;102886.31;5024764;28;20781;-77
2022/01/21 07:49:48;;;;;;;9.75;3.22;;;;;;;4.96;58.52;102890.78;5026981;28;20123;-77
2022/01/21 07:52:14;;;;;;;5.93;2.75;;;;;;;5.21;57.98;102877.91;5025796;28;20038;-76
2022/01/21 07:54:40;;;;;;;10.07;2.72;;;;;;;5.02;59.52;102878.13;5027505;28;20386;-77
2022/01/21 07:57:06;;;;;;;7.50;2.35;;;;;;;5.02;58.64;102891.88;5025224;28;20037;-76
2022/01/21 07:59:31;;;;;;;10.32;2.22;;;;;;;5.01;58.17;102904.69;5026165;28;20402;-77
2022/01/21 08:01:57;;;;;;;8.93;2.78;;;;;;;5.21;58.34;102919.13;5026854;28;20025;-77
2022/01/21 08:04:23;;;;;;;7.47;2.08;;;;;;;4.79;59.46;102924.50;5043150;28;20116;-77
2022/01/21 08:06:48;;;;;;;9.13;2.50;;;;;;;4.79;58.35;102928.81;5022726;28;20375;-77
2022/01/21 08:09:14;;;;;;;5.97;1.98;;;;;;;4.99;58.88;102927.81;5031188;28;20076;-77
2022/01/21 08:11:39;;;;;;;8.55;2.83;;;;;;;5.03;58.64;102924.50;5026848;28;20464;-77
2022/01/21 08:14:05;;;;;;;14.25;2.90;;;;;;;5.20;58.16;102915.72;5031503;28;20623;-77
2022/01/21 08:16:32;;;;;;;5.85;2.53;;;;;;;5.10;58.37;102923.91;5028432;28;20041;-76
2022/01/21 08:18:59;;;;;;;5.55;2.63;;;;;;;4.94;58.40;102931.91;5029590;28;20513;-77
2022/01/21 08:21:24;;;;;;;6.90;2.33;;;;;;;4.81;59.14;102925.47;5023584;28;20052;-77
2022/01/21 08:23:52;;;;;;;7.07;2.70;;;;;;;4.80;60.15;102928.84;5022454;28;20034;-77
2022/01/21 08:26:21;;;;;;;9.25;2.47;;;;;;;4.98;58.96;102940.63;5023949;28;20037;-77
2022/01/21 08:28:47;;;;;;;7.95;2.25;;;;;;;5.01;58.64;102948.47;5027102;28;20533;-77
2022/01/21 08:31:13;;;;;;;8.60;3.08;;;;;;;4.87;59.82;102945.41;5023394;28;20053;-77
2022/01/21 08:33:38;;;;;;;10.57;2.95;;;;;;;5.10;58.59;102936.81;5038538;28;20055;-77
2022/01/21 08:36:04;;;;;;;8.73;2.67;;;;;;;4.80;60.53;102938.25;5022484;28;20038;-77
2022/01/21 08:38:30;;;;;;;11.77;2.10;;;;;;;4.91;59.79;102932.69;5040994;28;20104;-77
2022/01/21 08:40:55;;;;;;;6.35;3.03;;;;;;;5.09;59.29;102932.47;5024166;28;20034;-77
2022/01/21 08:43:21;;;;;;;10.13;3.63;;;;;;;5.16;59.35;102942.19;5024174;28;20041;-77
2022/01/21 08:45:46;;;;;;;6.10;2.80;;;;;;;4.58;60.95;102936.59;5027089;28;20033;-76
2022/01/21 08:48:12;;;;;;;5.32;2.65;;;;;;;4.94;59.98;102936.22;5027497;28;20067;-76
2022/01/21 08:50:37;;;;;;;8.88;2.40;;;;;;;5.00;59.36;102932.13;5024711;28;20083;-76
2022/01/21 08:53:36;;;;;;;10.55;2.72;;;;;;;5.10;58.99;102930.75;5027126;28;20494;-77
2022/01/21 08:55:51;;;;;;;7.03;2.47;;;;;;;5.27;58.31;102933.13;5022378;28;20052;-76
2022/01/21 08:58:17;;;;;;;7.05;2.60;;;;;;;5.33;58.89;102928.19;5023956;28;20037;-77
2022/01/21 09:00:42;;;;;;;7.07;2.47;;;;;;;5.22;58.03;102934.66;5022252;28;20049;-76
2022/01/21 09:03:08;;;;;;;7.90;2.67;;;;;;;5.25;58.51;102936.47;5024905;28;20041;-77
2022/01/21 09:05:33;;;;;;;8.80;2.38;;;;;;;5.14;59.19;102936.09;5031247;28;20943;-76
2022/01/21 09:08:02;;;;;;;11.02;2.42;;;;;;;5.18;59.03;102934.47;5021604;28;20399;-76
2022/01/21 09:10:27;;;;;;;7.20;2.67;;;;;;;5.43;58.50;102931.97;5025203;28;20037;-78
2022/01/21 09:12:52;;;;;;;12.70;2.58;;;;;;;5.40;58.71;102926.69;5026409;28;20449;-78
2022/01/21 09:15:24;;;;;;;7.15;2.67;;;;;;;5.47;58.54;102928.66;5031722;28;20044;-79
2022/01/21 09:17:50;;;;;;;15.75;3.10;;;;;;;5.55;58.10;102934.06;5026302;28;20045;-78
2022/01/21 09:20:15;;;;;;;5.38;2.33;;;;;;;5.29;58.95;102936.66;5031629;28;20021;-78
2022/01/21 09:22:41;;;;;;;8.60;2.63;;;;;;;5.37;59.21;102945.50;5021216;28;20120;-79
2022/01/21 09:25:08;;;;;;;10.82;2.75;;;;;;;5.24;59.95;102945.91;5030114;28;20072;-79
2022/01/21 09:27:34;;;;;;;4.95;2.17;;;;;;;5.56;57.96;102944.44;5022390;28;20041;-78
2022/01/21 09:30:00;;;;;;;10.05;2.58;;;;;;;5.40;58.92;102958.50;5025034;28;20037;-79
2022/01/21 09:32:26;;;;;;;6.70;2.50;;;;;;;5.24;58.83;102956.19;5024249;28;20029;-80
2022/01/21 09:34:51;;;;;;;9.20;2.03;;;;;;;5.44;58.88;102957.78;5025044;28;20034;-79
2022/01/21 09:37:17;;;;;;;6.28;3.05;;;;;;;5.45;58.68;102943.19;5022904;28;20060;-79
2022/01/21 09:39:43;;;;;;;9.82;3.08;;;;;;;5.50;58.64;102949.41;5028205;28;20045;-79
2022/01/21 09:42:10;;;;;;;14.38;2.50;;;;;;;5.37;58.34;102948.09;5021202;28;20048;-79
2022/01/21 09:44:35;;;;;;;13.95;3.08;;;;;;;5.63;58.18;102948.09;5039614;28;20038;-78
2022/01/21 09:47:03;;;;;;;6.65;2.40;;;;;;;5.41;58.41;102949.09;5025598;28;20036;-79
2022/01/21 09:49:29;;;;;;;5.65;2.70;;;;;;;5.36;59.11;102954.06;5029621;28;20665;-78
2022/01/21 09:51:59;;;;;;;8.57;2.58;;;;;;;5.45;59.28;102940.59;5026942;28;20068;-78
2022/01/21 09:54:28;;;;;;;8.60;2.55;;;;;;;5.53;59.68;102939.19;5026913;28;20033;-78
2022/01/21 09:56:56;;;;;;;9.30;3.25;;;;;;;5.46;59.11;102945.84;5025754;28;20490;-81
2022/01/21 09:59:23;;;;;;;11.20;2.60;;;;;;;5.77;58.41;102936.56;5030345;28;20033;-81
2022/01/21 10:01:51;;;;;;;6.75;2.85;;;;;;;5.50;58.76;102948.53;5021043;28;20068;-80
2022/01/21 10:04:18;;;;;;;6.97;3.08;;;;;;;5.57;58.85;102945.31;5030119;28;20045;-80
2022/01/21 10:06:47;;;;;;;8.13;2.95;;;;;;;5.78;58.21;102943.44;5024004;28;20038;-80
2022/01/21 10:09:15;;;;;;;8.65;3.08;;;;;;;5.59;59.60;102947.13;5026737;28;20757;-80
2022/01/21 10:11:47;;;;;;;6.20;2.42;;;;;;;5.73;58.93;102952.75;5025677;28;20029;-80
2022/01/21 10:14:13;;;;;;;7.28;3.13;;;;;;;5.60;59.45;102947.97;5023168;28;20026;-81
2022/01/21 10:16:42;;;;;;;7.88;2.92;;;;;;;5.52;59.65;102952.00;5028530;28;20033;-81
2022/01/21 10:19:11;;;;;;;6.18;2.63;;;;;;;5.65;59.80;102946.47;5030807;28;20033;-81
2022/01/21 10:21:43;;;;;;;13.10;3.20;;;;;;;5.94;58.96;102953.47;5028529;28;20529;-80
2022/01/21 10:24:13;;;;;;;4.35;2.78;;;;;;;5.83;58.98;102952.25;5029590;28;20098;-81
2022/01/21 10:26:50;;;;;;;5.15;2.17;;;;;;;5.91;58.83;102943.94;5026961;28;20041;-80
2022/01/21 10:29:17;;;;;;;5.03;2.30;;;;;;;5.99;58.44;102944.16;5035458;28;20034;-81
2022/01/21 10:31:59;;;;;;;13.55;2.85;;;;;;;5.97;58.71;102944.13;5030167;28;20033;-80
2022/01/21 10:34:39;;;;;;;9.63;3.00;;;;;;;6.17;57.42;102946.44;5028845;28;20033;-81
2022/01/21 10:37:24;;;;;;;6.75;3.00;;;;;;;5.83;59.41;102950.50;5033392;28;20033;-80
2022/01/21 10:40:11;;;;;;;8.57;2.97;;;;;;;5.97;58.88;102948.41;5028365;28;20132;-81
2022/01/21 10:42:37;;;;;;;7.63;3.00;;;;;;;5.88;59.52;102953.25;5027527;28;20076;-81
2022/01/21 10:45:07;;;;;;;12.18;3.55;;;;;;;5.83;59.49;102960.81;5023999;28;20038;-81
2022/01/21 10:47:39;;;;;;;7.00;2.85;;;;;;;5.86;58.80;102966.09;5031745;28;20029;-80
2022/01/21 10:50:13;;;;;;;11.48;3.05;;;;;;;5.87;59.59;102960.13;5025498;28;20059;-81
2022/01/21 10:52:43;;;;;;;11.87;2.70;;;;;;;5.84;59.07;102956.56;5027626;28;20526;-81
2022/01/21 10:55:34;;;;;;;7.65;2.50;;;;;;;5.96;58.95;102957.84;5028286;28;20041;-81
2022/01/21 10:58:09;;;;;;;6.90;2.42;;;;;;;6.05;59.36;102957.25;5026065;28;20056;-81
2022/01/21 11:00:36;;;;;;;5.32;2.67;;;;;;;6.21;58.76;102959.50;5025609;28;20064;-81
2022/01/21 11:03:13;;;;;;;6.75;2.60;;;;;;;6.34;58.40;102955.59;5028883;28;20098;-81
2022/01/21 11:05:43;;;;;;;7.63;2.55;;;;;;;6.06;58.80;102955.56;5029991;28;20029;-81
2022/01/21 11:08:11;;;;;;;9.63;2.65;;;;;;;6.04;58.88;102950.34;5026581;28;20096;-81
2022/01/21 11:10:46;;;;;;;10.35;3.28;;;;;;;6.17;58.82;102949.03;5026199;28;20652;-81
2022/01/21 11:13:11;;;;;;;8.63;3.13;;;;;;;5.82;60.89;102948.78;5026346;28;20048;-81
2022/01/21 11:15:39;;;;;;;6.78;2.97;;;;;;;6.30;58.64;102939.16;5029519;28;20030;-81
2022/01/21 11:18:07;;;;;;;7.88;3.33;;;;;;;6.23;58.47;102928.56;5025549;28;20395;-81
2022/01/21 11:20:37;;;;;;;6.90;2.90;;;;;;;6.09;58.67;102929.84;5033319;28;20040;-81
2022/01/21 11:23:03;;;;;;;7.70;3.50;;;;;;;6.01;58.06;102930.47;5028262;28;20033;-81
2022/01/21 11:25:44;;;;;;;6.50;3.40;;;;;;;6.13;58.27;102922.25;5025720;28;20119;-81
2022/01/21 11:28:33;;;;;;;9.80;3.00;;;;;;;6.27;57.79;102926.16;5031359;28;20036;-82
2022/01/21 11:30:58;;;;;;;7.85;2.67;;;;;;;6.02;59.60;102916.75;5021690;28;20037;-81
2022/01/21 11:33:24;;;;;;;8.55;3.10;;;;;;;6.14;58.63;102917.97;5031119;28;20045;-81
2022/01/21 11:35:51;;;;;;;12.05;3.00;;;;;;;6.06;58.54;102907.41;5026446;28;20045;-81
2022/01/21 11:38:19;;;;;;;5.18;2.40;;;;;;;6.17;57.88;102918.06;5026923;28;20033;-81
2022/01/21 11:40:45;;;;;;;6.03;2.28;;;;;;;6.10;57.52;102914.41;5020187;28;20523;-81
2022/01/21 11:43:11;;;;;;;6.80;2.67;;;;;;;5.76;58.28;102920.22;5025150;28;20414;-81
2022/01/21 11:50:40;;;;;;;12.02;3.50;;;;;;;6.43;58.16;102899.97;5025904;28;20045;-81
2022/01/21 11:53:05;;;;;;;6.97;2.80;;;;;;;6.14;58.21;102895.63;5028475;28;20026;-81
2022/01/21 11:55:49;;;;;;;8.80;2.38;;;;;;;6.30;57.75;102887.53;5025670;28;20067;-81
2022/01/21 11:58:19;;;;;;;14.00;3.08;;;;;;;6.22;58.24;102899.31;5025741;28;20037;-81
2022/01/21 12:00:50;;;;;;;6.65;2.15;;;;;;;5.67;59.98;102895.81;5037700;28;20034;-81
2022/01/21 12:03:18;;;;;;;7.25;2.30;;;;;;;6.02;59.08;102901.28;5027618;28;20042;-81
2022/01/21 12:05:44;;;;;;;6.32;1.98;;;;;;;6.12;57.83;102899.00;5038407;28;20033;-80
2022/01/21 12:08:09;;;;;;;5.65;1.95;;;;;;;6.26;57.28;102900.28;5026454;28;20449;-81
2022/01/21 12:10:41;;;;;;;12.02;2.17;;;;;;;5.91;58.23;102904.34;5024018;28;20041;-81
2022/01/21 12:13:20;;;;;;;9.43;2.13;;;;;;;6.30;57.96;102894.41;5028516;28;20041;-81
2022/01/21 12:18:41;;;;;;;7.35;2.08;;;;;;;6.36;57.28;102879.09;5028379;28;20491;-81
2022/01/21 12:21:30;;;;;;;11.45;2.50;;;;;;;6.17;58.10;102887.09;5028563;28;20038;-80
2022/01/21 12:23:56;;;;;;;7.28;1.88;;;;;;;6.37;57.82;102884.28;5028742;28;20025;-80